Time;durP1;ratioP1;P1;durP2;ratioP2;P2;SDS_P1;SDS_P2;PMS_P1;PMS_P2;Temp;Humidity;BMP_temperature;BMP_pressure;BME280_temperature;BME280_humidity;BME280_pressure;Samples;Min_cycle;Max_cycle;Signal;HPM_P1;HPM_P2
2021/06/09 17:10:56;;;;;;;39.42;14.75;;;21.40;57.80;23.30;94385.00;;;;10574618;27;45450;-77
2021/06/09 17:15:58;;;;;;;33.10;13.38;;;;;25.10;94377.00;;;;10556797;27;74438;-79
2021/06/09 17:21:00;;;;;;;30.73;11.55;;;24.00;51.80;27.00;94390.00;;;;10558545;27;47119;-80
2021/06/09 17:27:08;;;;;;;25.92;11.13;;;22.90;56.20;27.80;94378.00;;;;10617581;27;45317;-76
2021/06/09 17:36:07;;;;;;;8.57;3.60;;;26.60;47.70;28.80;94388.00;;;;10598942;27;45446;-68
2021/06/09 17:43:31;;;;;;;2.83;1.50;;;24.90;51.60;27.20;94364.00;;;;10432872;27;45397;-85
2021/06/09 17:48:32;;;;;;;2.13;1.83;;;22.30;60.40;26.10;94364.00;;;;10513742;28;55996;-85
2021/06/09 17:53:39;;;;;;;2.80;2.45;;;20.90;66.30;25.00;94368.00;;;;10471500;28;48331;-86
2021/06/09 17:58:40;;;;;;;4.50;2.83;;;20.30;68.60;24.40;94356.00;;;;10471024;28;47618;-86
2021/06/09 18:03:41;;;;;;;4.22;2.95;;;19.80;71.10;23.90;94357.00;;;;10431314;27;47562;-87
2021/06/09 18:08:42;;;;;;;3.45;2.85;;;19.40;72.50;23.40;94364.00;;;;10515649;27;47291;-87
2021/06/09 18:13:42;;;;;;;2.63;2.33;;;19.00;72.20;23.10;94351.00;;;;10494940;28;76081;-88
2021/06/09 18:18:49;;;;;;;3.33;3.00;;;18.80;72.90;23.00;94374.00;;;;10511369;28;73901;-87
2021/06/09 18:23:51;;;;;;;3.60;3.03;;;18.70;73.80;22.80;94368.00;;;;10495920;28;48211;-88
2021/06/09 18:28:54;;;;;;;2.83;2.53;;;18.40;73.80;22.70;94384.00;;;;10495894;28;47211;-88
2021/06/09 18:34:13;;;;;;;4.57;2.50;;;18.30;75.10;22.50;94376.00;;;;10495992;28;47598;-87
2021/06/09 18:39:15;;;;;;;2.67;2.15;;;18.20;75.30;22.50;94395.00;;;;10495324;28;47556;-87
2021/06/09 18:44:22;;;;;;;3.13;2.33;;;18.20;74.90;22.50;94383.00;;;;10458037;27;45449;-84
2021/06/09 18:49:24;;;;;;;4.68;2.60;;;17.90;75.90;22.60;94395.00;;;;10522714;27;56298;-85
2021/06/09 18:54:38;;;;;;;3.28;2.60;;;17.90;75.90;22.50;94402.00;;;;10486883;28;45330;-85
2021/06/09 18:59:40;;;;;;;3.10;2.47;;;17.80;75.70;22.10;94390.00;;;;10467810;28;52623;-84
2021/06/09 19:04:41;;;;;;;2.80;2.50;;;17.60;76.40;21.90;94380.00;;;;10473657;28;52155;-84
2021/06/09 19:09:42;;;;;;;3.65;2.53;;;17.30;77.10;21.80;94394.00;;;;10494797;28;53326;-84
2021/06/09 19:14:43;;;;;;;7.95;4.30;;;17.10;78.80;21.80;94392.00;;;;10478653;28;47316;-84
2021/06/09 19:19:44;;;;;;;6.10;3.67;;;17.00;79.50;21.60;94412.00;;;;10501469;28;48085;-86
2021/06/09 19:24:45;;;;;;;4.47;2.92;;;16.70;80.10;21.40;94397.00;;;;10501134;28;47118;-85
2021/06/09 19:29:46;;;;;;;2.88;2.33;;;16.70;80.40;21.40;94392.00;;;;10515033;28;75413;-84
2021/06/09 19:34:47;;;;;;;3.08;2.60;;;16.60;80.50;21.30;94405.00;;;;10518078;28;49922;-84
2021/06/09 19:39:48;;;;;;;3.33;2.60;;;16.50;80.00;21.10;94408.00;;;;10529257;28;47080;-85
2021/06/09 19:44:49;;;;;;;2.47;2.28;;;16.50;79.40;21.10;94413.00;;;;10535712;27;47252;-84
2021/06/09 19:49:50;;;;;;;3.50;3.20;;;16.40;79.40;21.00;94408.00;;;;10505892;28;63916;-84
2021/06/09 19:54:51;;;;;;;3.70;3.10;;;16.30;80.30;20.90;94414.00;;;;10477382;27;47107;-84
2021/06/09 19:59:51;;;;;;;3.90;2.95;;;16.20;79.70;20.80;94419.00;;;;10461782;27;46997;-84
2021/06/09 20:04:52;;;;;;;3.85;3.25;;;16.00;80.70;20.70;94427.00;;;;10469461;28;68913;-86
2021/06/09 20:09:53;;;;;;;3.28;2.63;;;15.80;80.70;20.50;94424.00;;;;10470578;28;47047;-85
2021/06/09 20:14:53;;;;;;;3.75;2.80;;;15.80;80.70;20.40;94420.00;;;;10468640;28;59435;-86
2021/06/09 20:19:55;;;;;;;4.82;3.60;;;15.80;81.00;20.20;94405.00;;;;10468087;28;77076;-85
2021/06/09 20:25:05;;;;;;;4.00;3.38;;;15.70;80.70;20.10;94410.00;;;;10486188;28;47197;-84
2021/06/09 20:30:09;;;;;;;5.93;3.55;;;15.60;80.70;20.00;94404.00;;;;10439034;22;47394;-88
2021/06/09 20:35:10;;;;;;;4.03;3.30;;;15.60;81.10;20.00;94392.00;;;;10378011;28;47577;-87
2021/06/09 20:40:12;;;;;;;3.47;2.80;;;15.60;81.00;20.00;94382.00;;;;10378085;28;47123;-87
2021/06/09 20:45:16;;;;;;;4.15;3.28;;;15.40;80.30;20.00;94387.00;;;;10380244;28;47279;-88
2021/06/09 20:50:18;;;;;;;4.22;3.70;;;15.40;81.00;19.90;94390.00;;;;10380720;28;48033;-88
2021/06/09 20:55:19;;;;;;;5.68;3.70;;;15.40;81.40;19.70;94378.00;;;;10380113;28;47399;-88
2021/06/09 21:00:21;;;;;;;4.70;3.92;;;15.40;81.40;19.70;94397.00;;;;10379466;28;55085;-88
2021/06/09 21:05:22;;;;;;;4.65;3.03;;;15.20;81.70;19.70;94375.00;;;;10379758;28;47740;-88
2021/06/09 21:10:23;;;;;;;5.15;3.85;;;15.20;81.60;19.60;94379.00;;;;10380417;28;46971;-88
2021/06/09 21:15:25;;;;;;;4.82;3.85;;;15.20;81.00;19.50;94365.00;;;;10380641;28;47060;-88
2021/06/09 21:20:26;;;;;;;5.60;3.45;;;15.20;80.80;19.40;94382.00;;;;10380397;28;47290;-88
2021/06/09 21:25:27;;;;;;;4.32;3.65;;;15.10;80.40;19.50;94386.00;;;;10379833;28;47282;-88
2021/06/09 21:30:28;;;;;;;4.10;3.30;;;15.10;80.20;19.50;94375.00;;;;10378109;28;74343;-88
2021/06/09 21:35:29;;;;;;;4.82;3.20;;;15.10;80.10;19.50;94377.00;;;;10378555;28;75573;-88
2021/06/09 21:40:29;;;;;;;4.07;3.40;;;15.00;80.40;19.50;94377.00;;;;10378701;28;56903;-88
2021/06/09 21:45:30;;;;;;;3.70;3.10;;;15.00;80.40;19.40;94373.00;;;;10378761;28;65272;-88
2021/06/09 21:50:31;;;;;;;3.72;3.28;;;15.00;80.10;19.40;94371.00;;;;10377962;28;72367;-88
2021/06/09 21:55:31;;;;;;;5.28;3.80;;;15.00;80.80;19.40;94366.00;;;;10378097;28;69448;-88
2021/06/09 22:00:32;;;;;;;3.88;3.45;;;15.00;79.80;19.30;94361.00;;;;10378498;28;57385;-88
2021/06/09 22:05:33;;;;;;;4.05;3.33;;;14.90;80.10;19.20;94370.00;;;;10395270;28;47195;-87
2021/06/09 22:10:34;;;;;;;4.20;3.58;;;14.80;80.00;19.10;94354.00;;;;10378377;28;47883;-88
2021/06/09 22:15:35;;;;;;;6.95;4.20;;;14.70;80.70;19.00;94355.00;;;;10394432;28;75518;-88
2021/06/09 22:20:36;;;;;;;6.45;4.35;;;14.60;81.80;18.90;94353.00;;;;10395704;28;45284;-87
2021/06/09 22:25:37;;;;;;;4.88;4.38;;;14.60;80.90;18.90;94341.00;;;;10378850;28;47084;-88
2021/06/09 22:30:38;;;;;;;5.03;4.10;;;14.60;80.80;18.90;94347.00;;;;10384960;28;47900;-87
2021/06/09 22:35:39;;;;;;;4.38;3.35;;;14.60;80.90;19.00;94343.00;;;;10385198;28;48139;-88
2021/06/09 22:40:39;;;;;;;3.60;3.00;;;14.60;80.60;18.90;94356.00;;;;10383846;28;68906;-88
2021/06/09 22:45:40;;;;;;;4.40;3.50;;;14.60;80.30;18.90;94359.00;;;;10383411;28;75898;-88
2021/06/09 22:50:42;;;;;;;4.22;3.28;;;14.70;80.60;18.90;94355.00;;;;10384335;28;49293;-88
2021/06/09 22:55:42;;;;;;;5.13;3.63;;;14.60;79.80;18.90;94352.00;;;;10384320;28;47213;-88
2021/06/09 23:00:43;;;;;;;4.32;3.30;;;14.60;79.70;18.90;94343.00;;;;10384513;28;47383;-88
2021/06/09 23:05:45;;;;;;;4.75;3.63;;;14.40;80.30;18.90;94336.00;;;;10407249;28;48486;-88
2021/06/09 23:10:46;;;;;;;3.33;2.95;;;14.40;81.00;18.90;94331.00;;;;10383386;28;47067;-88
2021/06/09 23:15:46;;;;;;;4.93;3.75;;;14.30;80.60;18.80;94342.00;;;;10382256;28;76150;-88
2021/06/09 23:20:47;;;;;;;5.75;3.60;;;14.40;80.90;18.70;94343.00;;;;10381979;28;75477;-88
2021/06/09 23:25:48;;;;;;;5.45;3.20;;;14.30;80.70;18.70;94341.00;;;;10382338;28;60985;-88
2021/06/09 23:30:48;;;;;;;3.83;3.20;;;14.30;80.30;18.60;94344.00;;;;10382425;28;46986;-88
2021/06/09 23:35:49;;;;;;;4.75;3.42;;;14.30;80.30;18.60;94351.00;;;;10398873;28;47336;-88
2021/06/09 23:40:51;;;;;;;4.57;3.50;;;14.20;80.90;18.60;94336.00;;;;10381999;28;47190;-89
2021/06/09 23:45:52;;;;;;;3.53;3.08;;;14.20;81.20;18.50;94346.00;;;;10398645;28;48421;-89
2021/06/09 23:56:00;;;;;;;4.05;3.00;;;14.10;81.10;18.60;94345.00;;;;10392042;28;45327;-88
